PWSweather.com
Personal Weather Stations
Station Observations
IFREISTO2
Freiston, FreistonGB PE22 0QJ

FreistonFreistonGB PE22 0QJ

Lat: 52.964, Lon: 0.041

Elevation: 16

Station Type: Fine Offset

http://www.midlifedad.me.uk/weather

Latest ConditionsUpdated 7:30:00 AM GMT Thursday, Nov 14, 2019
Currently Today's Max Today's Min Today's Average
Temperature 43.9°F6.6°C 45.0°F7.2°C 41.4°F5.2°C 43.4°F6.3°C
Dew Point 41.1°F5.1°C 41.3°F5.2°C 38.4°F3.6°C 39.9°F4.4°C
Winds 7.6 mph NE12.2 kmh NE 13.4 mph -21.6 kmh - - 8.9 mph 14.3 kmh
Wind Gusts 10.7 mph17.2 kmh 23.5 mph37.8 kmh - -
Humidity 90% 91% 84% 88%
Pressure 29.32 in992.9 mb 29.32 in992.9 mb 29.27 in991.2 mb -
Precipitation - 0.01 in0.3 mm - -
Hour Temp Dew Point Humidity Winds Wind Gusts Pressure Precip Precip Rate Daily Precip Total
07:30 AM 43.9°F6.6°C 41.1°F5.1°C 90% 7.6 mph NE12.2 kmh NE 10.7 mph17.2 kmh 29.32 in992.9 mb 0.00 in0.0 mm 0.00 in0.0 mm 0.01 in0.3 mm
07:25 AM 43.7°F6.5°C 40.7°F4.8°C 89% 7.3 mph NE11.7 kmh NE 9.8 mph15.8 kmh 29.32 in992.9 mb 0.00 in0.0 mm 0.00 in0.0 mm 0.01 in0.3 mm
07:20 AM 43.7°F6.5°C 40.7°F4.8°C 89% 7.1 mph NE11.4 kmh NE 9.8 mph15.8 kmh 29.32 in992.9 mb 0.00 in0.0 mm 0.00 in0.0 mm 0.01 in0.3 mm
07:15 AM 43.7°F6.5°C 40.7°F4.8°C 89% 6.8 mph NE10.9 kmh NE 9.8 mph15.8 kmh 29.32 in992.9 mb 0.00 in0.0 mm 0.00 in0.0 mm 0.01 in0.3 mm
07:10 AM 43.9°F6.6°C 40.8°F4.9°C 89% 6.6 mph NE10.6 kmh NE 9.8 mph15.8 kmh 29.32 in992.9 mb 0.00 in0.0 mm 0.00 in0.0 mm 0.01 in0.3 mm
07:05 AM 43.9°F6.6°C 41.1°F5.1°C 90% 6.6 mph NE10.6 kmh NE 9.8 mph15.8 kmh 29.32 in992.9 mb 0.00 in0.0 mm 0.00 in0.0 mm 0.01 in0.3 mm
07:00 AM 44.1°F6.7°C 41.3°F5.2°C 90% 6.2 mph NE10.0 kmh NE 9.8 mph15.8 kmh 29.32 in992.9 mb 0.00 in0.0 mm 0.00 in0.0 mm 0.01 in0.3 mm
06:55 AM 44.1°F6.7°C 41.3°F5.2°C 90% 5.8 mph NE9.3 kmh NE 9.8 mph15.8 kmh 29.31 in992.6 mb 0.00 in0.0 mm 0.00 in0.0 mm 0.01 in0.3 mm
06:50 AM 44.1°F6.7°C 41.3°F5.2°C 90% 5.1 mph NE8.2 kmh NE 9.2 mph14.8 kmh 29.32 in992.9 mb 0.00 in0.0 mm 0.00 in0.0 mm 0.01 in0.3 mm
06:45 AM 44.1°F6.7°C 41.3°F5.2°C 90% 3.6 mph NE5.8 kmh NE 8.3 mph13.4 kmh 29.32 in992.9 mb 0.00 in0.0 mm 0.00 in0.0 mm 0.01 in0.3 mm
06:40 AM 44.1°F6.7°C 41.3°F5.2°C 90% 1.4 mph NE2.3 kmh NE 7.6 mph12.2 kmh 29.31 in992.6 mb 0.00 in0.0 mm 0.00 in0.0 mm 0.01 in0.3 mm
06:35 AM 44.1°F6.7°C 41.3°F5.2°C 90% 0.5 mph NE0.8 kmh NE 6.9 mph11.1 kmh 29.31 in992.6 mb 0.00 in0.0 mm 0.00 in0.0 mm 0.01 in0.3 mm
06:30 AM 44.1°F6.7°C 41.3°F5.2°C 90% 1.3 mph NE2.1 kmh NE 6.9 mph11.1 kmh 29.31 in992.6 mb 0.00 in0.0 mm 0.00 in0.0 mm 0.01 in0.3 mm
06:25 AM 43.9°F6.6°C 41.1°F5.1°C 90% 2.2 mph NE3.5 kmh NE 6.9 mph11.1 kmh 29.31 in992.6 mb 0.01 in0.3 mm 0.00 in0.0 mm 0.01 in0.3 mm
06:20 AM 43.7°F6.5°C 40.7°F4.8°C 89% 3.0 mph NE4.8 kmh NE 6.9 mph11.1 kmh 29.30 in992.2 mb 0.01 in0.3 mm 0.00 in0.0 mm 0.01 in0.3 mm
06:15 AM 43.7°F6.5°C 40.7°F4.8°C 89% 3.9 mph NE6.3 kmh NE 7.6 mph12.2 kmh 29.30 in992.2 mb 0.01 in0.3 mm 0.00 in0.0 mm 0.01 in0.3 mm
06:10 AM 43.7°F6.5°C 40.7°F4.8°C 89% 4.3 mph NE6.9 kmh NE 7.6 mph12.2 kmh 29.30 in992.2 mb 0.01 in0.3 mm 0.00 in0.0 mm 0.01 in0.3 mm
06:05 AM 43.9°F6.6°C 40.8°F4.9°C 89% 5.7 mph NE9.2 kmh NE 10.7 mph17.2 kmh 29.30 in992.2 mb 0.01 in0.3 mm 0.00 in0.0 mm 0.01 in0.3 mm
06:00 AM 43.9°F6.6°C 40.8°F4.9°C 89% 7.0 mph NE11.3 kmh NE 12.1 mph19.5 kmh 29.30 in992.2 mb 0.01 in0.3 mm 0.00 in0.0 mm 0.01 in0.3 mm
05:55 AM 43.9°F6.6°C 40.8°F4.9°C 89% 8.3 mph NE13.4 kmh NE 14.5 mph23.3 kmh 29.30 in992.2 mb 0.01 in0.3 mm 0.00 in0.0 mm 0.01 in0.3 mm
05:50 AM 44.1°F6.7°C 41.0°F5.0°C 89% 9.8 mph NE15.8 kmh NE 16.8 mph27.0 kmh 29.30 in992.2 mb 0.01 in0.3 mm 0.00 in0.0 mm 0.01 in0.3 mm
05:45 AM 44.1°F6.7°C 40.7°F4.8°C 88% 9.5 mph NE15.3 kmh NE 16.8 mph27.0 kmh 29.30 in992.2 mb 0.01 in0.3 mm 0.00 in0.0 mm 0.01 in0.3 mm
05:40 AM 44.2°F6.8°C 40.9°F4.9°C 88% 9.5 mph ENE15.3 kmh ENE 16.8 mph27.0 kmh 29.30 in992.2 mb 0.01 in0.3 mm 0.00 in0.0 mm 0.01 in0.3 mm
05:35 AM 44.2°F6.8°C 40.6°F4.8°C 87% 10.8 mph NE17.4 kmh NE 19.0 mph30.6 kmh 29.29 in991.9 mb 0.01 in0.3 mm 0.00 in0.0 mm 0.01 in0.3 mm
05:30 AM 44.4°F6.9°C 40.8°F4.9°C 87% 10.9 mph NE17.5 kmh NE 19.7 mph31.7 kmh 29.29 in991.9 mb 0.01 in0.3 mm 0.12 in3.0 mm 0.01 in0.3 mm
05:25 AM 44.6°F7.0°C 40.4°F4.7°C 85% 10.7 mph NE17.2 kmh NE 19.7 mph31.7 kmh 29.29 in991.9 mb 0.00 in0.0 mm 0.00 in0.0 mm 0.00 in0.0 mm
05:20 AM 44.6°F7.0°C 40.1°F4.5°C 84% 12.1 mph NE19.5 kmh NE 19.7 mph31.7 kmh 29.29 in991.9 mb 0.00 in0.0 mm 0.00 in0.0 mm 0.00 in0.0 mm
05:15 AM 44.8°F7.1°C 40.2°F4.6°C 84% 11.6 mph NE18.7 kmh NE 19.7 mph31.7 kmh 29.29 in991.9 mb 0.00 in0.0 mm 0.00 in0.0 mm 0.00 in0.0 mm
05:10 AM 44.8°F7.1°C 40.2°F4.6°C 84% 10.0 mph ENE16.1 kmh ENE 19.0 mph30.6 kmh 29.29 in991.9 mb 0.00 in0.0 mm 0.00 in0.0 mm 0.00 in0.0 mm
05:05 AM 45.0°F7.2°C 40.4°F4.7°C 84% 11.2 mph ENE18.0 kmh ENE 19.7 mph31.7 kmh 29.29 in991.9 mb 0.00 in0.0 mm 0.00 in0.0 mm 0.00 in0.0 mm
05:00 AM 45.0°F7.2°C 40.4°F4.7°C 84% 13.2 mph ENE21.2 kmh ENE 22.1 mph35.6 kmh 29.29 in991.9 mb 0.00 in0.0 mm 0.00 in0.0 mm 0.00 in0.0 mm
04:55 AM 45.0°F7.2°C 40.4°F4.7°C 84% 13.4 mph ENE21.6 kmh ENE 23.5 mph37.8 kmh 29.29 in991.9 mb 0.00 in0.0 mm 0.00 in0.0 mm 0.00 in0.0 mm
04:50 AM 45.0°F7.2°C 40.4°F4.7°C 84% 13.3 mph ENE21.4 kmh ENE 23.5 mph37.8 kmh 29.29 in991.9 mb 0.00 in0.0 mm 0.00 in0.0 mm 0.00 in0.0 mm
04:45 AM 44.8°F7.1°C 40.5°F4.7°C 85% 13.2 mph ENE21.2 kmh ENE 20.6 mph33.2 kmh 29.29 in991.9 mb 0.00 in0.0 mm 0.00 in0.0 mm 0.00 in0.0 mm
04:40 AM 44.6°F7.0°C 40.4°F4.7°C 85% 12.9 mph ENE20.8 kmh ENE 20.6 mph33.2 kmh 29.29 in991.9 mb 0.00 in0.0 mm 0.00 in0.0 mm 0.00 in0.0 mm
04:35 AM 44.6°F7.0°C 40.4°F4.7°C 85% 12.6 mph ENE20.3 kmh ENE 20.6 mph33.2 kmh 29.29 in991.9 mb 0.00 in0.0 mm 0.00 in0.0 mm 0.00 in0.0 mm
04:30 AM 44.6°F7.0°C 40.4°F4.7°C 85% 12.0 mph E19.3 kmh E 19.0 mph30.6 kmh 29.29 in991.9 mb 0.00 in0.0 mm 0.00 in0.0 mm 0.00 in0.0 mm
04:25 AM 44.6°F7.0°C 40.4°F4.7°C 85% 11.5 mph ENE18.5 kmh ENE 22.1 mph35.6 kmh 29.29 in991.9 mb 0.00 in0.0 mm 0.00 in0.0 mm 0.00 in0.0 mm
04:20 AM 44.6°F7.0°C 40.4°F4.7°C 85% 11.9 mph ENE19.2 kmh ENE 22.1 mph35.6 kmh 29.29 in991.9 mb 0.00 in0.0 mm 0.00 in0.0 mm 0.00 in0.0 mm
04:15 AM 44.8°F7.1°C 40.5°F4.7°C 85% 13.0 mph NE20.9 kmh NE 20.6 mph33.2 kmh 29.28 in991.5 mb 0.00 in0.0 mm 0.00 in0.0 mm 0.00 in0.0 mm
04:10 AM 44.6°F7.0°C 40.4°F4.7°C 85% 11.9 mph NE19.2 kmh NE 20.6 mph33.2 kmh 29.28 in991.5 mb 0.00 in0.0 mm 0.00 in0.0 mm 0.00 in0.0 mm
04:05 AM 44.4°F6.9°C 40.2°F4.6°C 85% 10.5 mph NE16.9 kmh NE 17.4 mph28.0 kmh 29.28 in991.5 mb 0.00 in0.0 mm 0.00 in0.0 mm 0.00 in0.0 mm
04:00 AM 44.4°F6.9°C 40.2°F4.6°C 85% 10.7 mph NE17.2 kmh NE 16.8 mph27.0 kmh 29.28 in991.5 mb 0.00 in0.0 mm 0.00 in0.0 mm 0.00 in0.0 mm
03:55 AM 44.2°F6.8°C 40.0°F4.4°C 85% 10.5 mph NE16.9 kmh NE 17.4 mph28.0 kmh 29.27 in991.2 mb 0.00 in0.0 mm 0.00 in0.0 mm 0.00 in0.0 mm
03:50 AM 44.2°F6.8°C 40.0°F4.4°C 85% 10.7 mph NE17.2 kmh NE 17.4 mph28.0 kmh 29.27 in991.2 mb 0.00 in0.0 mm 0.00 in0.0 mm 0.00 in0.0 mm
03:45 AM 44.1°F6.7°C 39.8°F4.3°C 85% 10.7 mph NE17.2 kmh NE 15.9 mph25.6 kmh 29.27 in991.2 mb 0.00 in0.0 mm 0.00 in0.0 mm 0.00 in0.0 mm
03:40 AM 44.1°F6.7°C 40.1°F4.5°C 86% 10.7 mph NE17.2 kmh NE 19.0 mph30.6 kmh 29.28 in991.5 mb 0.00 in0.0 mm 0.00 in0.0 mm 0.00 in0.0 mm
03:35 AM 44.1°F6.7°C 40.1°F4.5°C 86% 11.2 mph NE18.0 kmh NE 19.0 mph30.6 kmh 29.27 in991.2 mb 0.00 in0.0 mm 0.00 in0.0 mm 0.00 in0.0 mm
03:30 AM 44.2°F6.8°C 40.3°F4.6°C 86% 10.3 mph NE16.6 kmh NE 19.0 mph30.6 kmh 29.27 in991.2 mb 0.00 in0.0 mm 0.00 in0.0 mm 0.00 in0.0 mm
03:25 AM 44.2°F6.8°C 40.6°F4.8°C 87% 10.0 mph ENE16.1 kmh ENE 17.4 mph28.0 kmh 29.28 in991.5 mb 0.00 in0.0 mm 0.00 in0.0 mm 0.00 in0.0 mm
03:20 AM 44.1°F6.7°C 40.1°F4.5°C 86% 10.3 mph ENE16.6 kmh ENE 17.4 mph28.0 kmh 29.28 in991.5 mb 0.00 in0.0 mm 0.00 in0.0 mm 0.00 in0.0 mm
03:15 AM 43.9°F6.6°C 40.0°F4.4°C 86% 9.9 mph NE15.9 kmh NE 15.9 mph25.6 kmh 29.28 in991.5 mb 0.00 in0.0 mm 0.00 in0.0 mm 0.00 in0.0 mm
03:10 AM 43.7°F6.5°C 39.8°F4.3°C 86% 9.4 mph NE15.1 kmh NE 15.9 mph25.6 kmh 29.28 in991.5 mb 0.00 in0.0 mm 0.00 in0.0 mm 0.00 in0.0 mm
03:05 AM 43.5°F6.4°C 39.6°F4.2°C 86% 8.7 mph NE14.0 kmh NE 16.8 mph27.0 kmh 29.27 in991.2 mb 0.00 in0.0 mm 0.00 in0.0 mm 0.00 in0.0 mm
03:00 AM 43.5°F6.4°C 39.6°F4.2°C 86% 8.4 mph ENE13.5 kmh ENE 16.8 mph27.0 kmh 29.27 in991.2 mb 0.00 in0.0 mm 0.00 in0.0 mm 0.00 in0.0 mm
02:55 AM 43.2°F6.2°C 39.3°F4.1°C 86% 9.0 mph ENE14.5 kmh ENE 15.2 mph24.5 kmh 29.28 in991.5 mb 0.00 in0.0 mm 0.00 in0.0 mm 0.00 in0.0 mm
02:50 AM 43.2°F6.2°C 39.6°F4.2°C 87% 9.4 mph E15.1 kmh E 16.8 mph27.0 kmh 29.28 in991.5 mb 0.00 in0.0 mm 0.00 in0.0 mm 0.00 in0.0 mm
02:45 AM 43.0°F6.1°C 39.4°F4.1°C 87% 8.8 mph E14.2 kmh E 16.8 mph27.0 kmh 29.28 in991.5 mb 0.00 in0.0 mm 0.00 in0.0 mm 0.00 in0.0 mm
02:40 AM 43.0°F6.1°C 39.4°F4.1°C 87% 8.7 mph ENE14.0 kmh ENE 16.8 mph27.0 kmh 29.28 in991.5 mb 0.00 in0.0 mm 0.00 in0.0 mm 0.00 in0.0 mm
02:35 AM 43.0°F6.1°C 39.4°F4.1°C 87% 9.1 mph ENE14.6 kmh ENE 15.9 mph25.6 kmh 29.28 in991.5 mb 0.00 in0.0 mm 0.00 in0.0 mm 0.00 in0.0 mm
02:30 AM 42.8°F6.0°C 39.2°F4.0°C 87% 8.3 mph NE13.4 kmh NE 14.5 mph23.3 kmh 29.28 in991.5 mb 0.00 in0.0 mm 0.00 in0.0 mm 0.00 in0.0 mm
02:25 AM 42.6°F5.9°C 39.3°F4.1°C 88% 7.7 mph NE12.4 kmh NE 13.0 mph20.9 kmh 29.27 in991.2 mb 0.00 in0.0 mm 0.00 in0.0 mm 0.00 in0.0 mm
02:20 AM 42.4°F5.8°C 39.4°F4.1°C 89% 8.0 mph ENE12.9 kmh ENE 15.2 mph24.5 kmh 29.27 in991.2 mb 0.00 in0.0 mm 0.00 in0.0 mm 0.00 in0.0 mm
02:15 AM 42.4°F5.8°C 39.4°F4.1°C 89% 7.7 mph ENE12.4 kmh ENE 15.2 mph24.5 kmh 29.27 in991.2 mb 0.00 in0.0 mm 0.00 in0.0 mm 0.00 in0.0 mm
02:10 AM 42.3°F5.7°C 39.0°F3.9°C 88% 7.9 mph ENE12.7 kmh ENE 13.6 mph21.9 kmh 29.28 in991.5 mb 0.00 in0.0 mm 0.00 in0.0 mm 0.00 in0.0 mm
02:05 AM 42.3°F5.7°C 39.0°F3.9°C 88% 8.7 mph ENE14.0 kmh ENE 13.6 mph21.9 kmh 29.28 in991.5 mb 0.00 in0.0 mm 0.00 in0.0 mm 0.00 in0.0 mm
02:00 AM 42.3°F5.7°C 39.0°F3.9°C 88% 8.5 mph ENE13.7 kmh ENE 13.6 mph21.9 kmh 29.28 in991.5 mb 0.00 in0.0 mm 0.00 in0.0 mm 0.00 in0.0 mm
01:55 AM 42.3°F5.7°C 39.0°F3.9°C 88% 8.5 mph ENE13.7 kmh ENE 13.6 mph21.9 kmh 29.28 in991.5 mb 0.00 in0.0 mm 0.00 in0.0 mm 0.00 in0.0 mm
01:50 AM 42.3°F5.7°C 39.2°F4.0°C 89% 8.8 mph ENE14.2 kmh ENE 14.5 mph23.3 kmh 29.28 in991.5 mb 0.00 in0.0 mm 0.00 in0.0 mm 0.00 in0.0 mm
01:45 AM 42.4°F5.8°C 39.4°F4.1°C 89% 7.7 mph ENE12.4 kmh ENE 14.5 mph23.3 kmh 29.28 in991.5 mb 0.00 in0.0 mm 0.00 in0.0 mm 0.00 in0.0 mm
01:40 AM 42.3°F5.7°C 39.0°F3.9°C 88% 6.3 mph ENE10.1 kmh ENE 10.7 mph17.2 kmh 29.28 in991.5 mb 0.00 in0.0 mm 0.00 in0.0 mm 0.00 in0.0 mm
01:35 AM 42.3°F5.7°C 39.0°F3.9°C 88% 6.0 mph ENE9.7 kmh ENE 10.7 mph17.2 kmh 29.27 in991.2 mb 0.00 in0.0 mm 0.00 in0.0 mm 0.00 in0.0 mm
01:30 AM 42.3°F5.7°C 39.0°F3.9°C 88% 6.7 mph E10.8 kmh E 14.5 mph23.3 kmh 29.28 in991.5 mb 0.00 in0.0 mm 0.00 in0.0 mm 0.00 in0.0 mm
01:25 AM 42.3°F5.7°C 39.0°F3.9°C 88% 8.3 mph E13.4 kmh E 14.5 mph23.3 kmh 29.28 in991.5 mb 0.00 in0.0 mm 0.00 in0.0 mm 0.00 in0.0 mm
01:20 AM 42.3°F5.7°C 39.0°F3.9°C 88% 8.7 mph E14.0 kmh E 14.5 mph23.3 kmh 29.27 in991.2 mb 0.00 in0.0 mm 0.00 in0.0 mm 0.00 in0.0 mm
01:15 AM 42.1°F5.6°C 39.1°F3.9°C 89% 8.5 mph ENE13.7 kmh ENE 13.6 mph21.9 kmh 29.28 in991.5 mb 0.00 in0.0 mm 0.00 in0.0 mm 0.00 in0.0 mm
01:10 AM 42.1°F5.6°C 39.1°F3.9°C 89% 9.0 mph ENE14.5 kmh ENE 13.6 mph21.9 kmh 29.28 in991.5 mb 0.00 in0.0 mm 0.00 in0.0 mm 0.00 in0.0 mm
01:05 AM 41.9°F5.5°C 38.6°F3.7°C 88% 9.2 mph ENE14.8 kmh ENE 15.9 mph25.6 kmh 29.28 in991.5 mb 0.00 in0.0 mm 0.00 in0.0 mm 0.00 in0.0 mm
01:00 AM 41.7°F5.4°C 38.4°F3.6°C 88% 9.7 mph ENE15.6 kmh ENE 15.9 mph25.6 kmh 29.28 in991.5 mb 0.00 in0.0 mm 0.00 in0.0 mm 0.00 in0.0 mm
12:55 AM 41.7°F5.4°C 38.7°F3.7°C 89% 10.4 mph ENE16.7 kmh ENE 16.8 mph27.0 kmh 29.28 in991.5 mb 0.00 in0.0 mm 0.00 in0.0 mm 0.00 in0.0 mm
12:50 AM 41.7°F5.4°C 38.7°F3.7°C 89% 10.9 mph ENE17.5 kmh ENE 16.8 mph27.0 kmh 29.28 in991.5 mb 0.00 in0.0 mm 0.00 in0.0 mm 0.00 in0.0 mm
12:45 AM 41.9°F5.5°C 38.9°F3.8°C 89% 11.0 mph ENE17.7 kmh ENE 16.8 mph27.0 kmh 29.28 in991.5 mb 0.00 in0.0 mm 0.00 in0.0 mm 0.00 in0.0 mm
12:40 AM 41.9°F5.5°C 39.2°F4.0°C 90% 10.3 mph ENE16.6 kmh ENE 15.9 mph25.6 kmh 29.28 in991.5 mb 0.00 in0.0 mm 0.00 in0.0 mm 0.00 in0.0 mm
12:35 AM 41.7°F5.4°C 39.0°F3.9°C 90% 10.3 mph ENE16.6 kmh ENE 18.3 mph29.5 kmh 29.28 in991.5 mb 0.00 in0.0 mm 0.00 in0.0 mm 0.00 in0.0 mm
12:30 AM 41.5°F5.3°C 38.8°F3.8°C 90% 10.4 mph ENE16.7 kmh ENE 18.3 mph29.5 kmh 29.28 in991.5 mb 0.00 in0.0 mm 0.00 in0.0 mm 0.00 in0.0 mm
12:25 AM 41.4°F5.2°C 38.6°F3.7°C 90% 9.8 mph ENE15.8 kmh ENE 15.9 mph25.6 kmh 29.28 in991.5 mb 0.00 in0.0 mm 0.00 in0.0 mm 0.00 in0.0 mm
12:20 AM 41.4°F5.2°C 38.6°F3.7°C 90% 9.3 mph ENE15.0 kmh ENE 14.5 mph23.3 kmh 29.28 in991.5 mb 0.00 in0.0 mm 0.00 in0.0 mm 0.00 in0.0 mm
12:15 AM 41.4°F5.2°C 38.6°F3.7°C 90% 9.8 mph ENE15.8 kmh ENE 15.9 mph25.6 kmh 29.28 in991.5 mb 0.00 in0.0 mm 0.00 in0.0 mm 0.00 in0.0 mm
12:10 AM 41.5°F5.3°C 39.1°F3.9°C 91% 11.0 mph E17.7 kmh E 16.8 mph27.0 kmh 29.28 in991.5 mb 0.00 in0.0 mm 0.00 in0.0 mm 0.00 in0.0 mm
12:05 AM 41.4°F5.2°C 38.9°F3.8°C 91% 11.1 mph E17.9 kmh E 16.8 mph27.0 kmh 29.29 in991.9 mb 0.00 in0.0 mm 0.00 in0.0 mm 0.00 in0.0 mm
12:00 AM 41.4°F5.2°C 38.9°F3.8°C 91% 10.9 mph E17.5 kmh E 15.9 mph25.6 kmh 29.29 in991.9 mb 0.00 in0.0 mm 0.00 in0.0 mm 0.00 in0.0 mm